sensor_id;sensor_type;location;lat;lon;timestamp;P1;durP1;ratioP1;P2;durP2;ratioP2
11034;SDS011;5571;48.110;-1.706;2022-11-15T00:00:16;6.33;;;2.70;;
11034;SDS011;5571;48.110;-1.706;2022-11-15T00:02:42;9.23;;;2.70;;
11034;SDS011;5571;48.110;-1.706;2022-11-15T00:05:07;7.83;;;2.47;;
11034;SDS011;5571;48.110;-1.706;2022-11-15T00:07:33;7.53;;;2.80;;
11034;SDS011;5571;48.110;-1.706;2022-11-15T00:09:59;9.70;;;2.50;;
11034;SDS011;5571;48.110;-1.706;2022-11-15T00:12:24;10.80;;;2.27;;
11034;SDS011;5571;48.110;-1.706;2022-11-15T00:39:11;7.23;;;2.30;;
11034;SDS011;5571;48.110;-1.706;2022-11-15T00:41:36;16.00;;;2.80;;
11034;SDS011;5571;48.110;-1.706;2022-11-15T00:44:02;13.67;;;3.20;;
11034;SDS011;5571;48.110;-1.706;2022-11-15T00:46:28;11.67;;;3.00;;
11034;SDS011;5571;48.110;-1.706;2022-11-15T00:48:53;11.47;;;2.50;;
11034;SDS011;5571;48.110;-1.706;2022-11-15T00:51:19;11.97;;;2.43;;
11034;SDS011;5571;48.110;-1.706;2022-11-15T00:53:44;7.50;;;2.20;;
11034;SDS011;5571;48.110;-1.706;2022-11-15T00:56:10;10.27;;;2.90;;
11034;SDS011;5571;48.110;-1.706;2022-11-15T00:58:36;7.30;;;2.60;;
11034;SDS011;5571;48.110;-1.706;2022-11-15T01:01:08;7.43;;;2.83;;
11034;SDS011;5571;48.110;-1.706;2022-11-15T01:03:36;10.67;;;2.40;;
11034;SDS011;5571;48.110;-1.706;2022-11-15T01:06:03;12.53;;;2.80;;
11034;SDS011;5571;48.110;-1.706;2022-11-15T01:08:29;14.17;;;2.70;;
11034;SDS011;5571;48.110;-1.706;2022-11-15T01:10:59;10.07;;;2.73;;
11034;SDS011;5571;48.110;-1.706;2022-11-15T01:13:29;13.67;;;2.83;;
11034;SDS011;5571;48.110;-1.706;2022-11-15T01:15:56;7.83;;;2.93;;
11034;SDS011;5571;48.110;-1.706;2022-11-15T01:18:22;14.33;;;2.67;;
11034;SDS011;5571;48.110;-1.706;2022-11-15T01:20:47;7.87;;;2.10;;
11034;SDS011;5571;48.110;-1.706;2022-11-15T01:23:13;8.90;;;2.13;;
11034;SDS011;5571;48.110;-1.706;2022-11-15T01:25:39;9.27;;;2.33;;
11034;SDS011;5571;48.110;-1.706;2022-11-15T01:28:05;13.57;;;2.40;;
11034;SDS011;5571;48.110;-1.706;2022-11-15T01:30:30;8.30;;;2.17;;
11034;SDS011;5571;48.110;-1.706;2022-11-15T01:32:56;8.23;;;2.07;;
11034;SDS011;5571;48.110;-1.706;2022-11-15T01:35:21;10.17;;;2.53;;
11034;SDS011;5571;48.110;-1.706;2022-11-15T01:37:47;8.50;;;2.10;;
11034;SDS011;5571;48.110;-1.706;2022-11-15T01:40:13;10.00;;;2.77;;
11034;SDS011;5571;48.110;-1.706;2022-11-15T01:42:38;8.40;;;2.10;;
11034;SDS011;5571;48.110;-1.706;2022-11-15T01:45:04;5.73;;;2.20;;
11034;SDS011;5571;48.110;-1.706;2022-11-15T01:47:35;10.13;;;2.10;;
11034;SDS011;5571;48.110;-1.706;2022-11-15T01:50:08;11.73;;;2.50;;
11034;SDS011;5571;48.110;-1.706;2022-11-15T01:52:37;9.07;;;2.50;;
11034;SDS011;5571;48.110;-1.706;2022-11-15T01:55:14;7.93;;;2.20;;
11034;SDS011;5571;48.110;-1.706;2022-11-15T01:57:45;9.80;;;2.63;;
11034;SDS011;5571;48.110;-1.706;2022-11-15T02:00:14;12.73;;;1.90;;
11034;SDS011;5571;48.110;-1.706;2022-11-15T02:02:40;12.27;;;2.27;;
11034;SDS011;5571;48.110;-1.706;2022-11-15T02:05:06;8.90;;;2.50;;
11034;SDS011;5571;48.110;-1.706;2022-11-15T02:07:32;9.63;;;2.07;;
11034;SDS011;5571;48.110;-1.706;2022-11-15T02:10:01;8.77;;;2.40;;
11034;SDS011;5571;48.110;-1.706;2022-11-15T02:12:35;10.43;;;2.33;;
11034;SDS011;5571;48.110;-1.706;2022-11-15T02:15:01;12.90;;;2.00;;
11034;SDS011;5571;48.110;-1.706;2022-11-15T02:20:20;12.03;;;2.40;;
11034;SDS011;5571;48.110;-1.706;2022-11-15T02:28:38;11.97;;;2.57;;
11034;SDS011;5571;48.110;-1.706;2022-11-15T02:39:41;8.57;;;2.07;;
11034;SDS011;5571;48.110;-1.706;2022-11-15T02:42:11;8.90;;;2.10;;
11034;SDS011;5571;48.110;-1.706;2022-11-15T02:44:59;7.57;;;1.80;;
11034;SDS011;5571;48.110;-1.706;2022-11-15T02:47:29;6.10;;;1.80;;
11034;SDS011;5571;48.110;-1.706;2022-11-15T02:50:05;9.70;;;2.20;;
11034;SDS011;5571;48.110;-1.706;2022-11-15T02:52:34;14.57;;;2.23;;
11034;SDS011;5571;48.110;-1.706;2022-11-15T02:55:00;8.80;;;2.10;;
11034;SDS011;5571;48.110;-1.706;2022-11-15T03:00:13;11.47;;;2.30;;
11034;SDS011;5571;48.110;-1.706;2022-11-15T03:02:43;8.17;;;2.10;;
11034;SDS011;5571;48.110;-1.706;2022-11-15T03:08:29;11.33;;;2.50;;
11034;SDS011;5571;48.110;-1.706;2022-11-15T03:11:11;13.30;;;2.30;;
11034;SDS011;5571;48.110;-1.706;2022-11-15T03:14:00;10.53;;;2.10;;
11034;SDS011;5571;48.110;-1.706;2022-11-15T03:16:38;9.83;;;2.20;;
11034;SDS011;5571;48.110;-1.706;2022-11-15T03:19:13;12.50;;;2.10;;
11034;SDS011;5571;48.110;-1.706;2022-11-15T03:21:44;6.87;;;1.80;;
11034;SDS011;5571;48.110;-1.706;2022-11-15T03:24:10;7.33;;;2.20;;
11034;SDS011;5571;48.110;-1.706;2022-11-15T03:26:39;7.80;;;2.47;;
11034;SDS011;5571;48.110;-1.706;2022-11-15T03:29:16;9.90;;;2.43;;
11034;SDS011;5571;48.110;-1.706;2022-11-15T03:31:49;10.43;;;1.90;;
11034;SDS011;5571;48.110;-1.706;2022-11-15T03:37:40;7.80;;;1.60;;
11034;SDS011;5571;48.110;-1.706;2022-11-15T03:40:24;8.90;;;2.17;;
11034;SDS011;5571;48.110;-1.706;2022-11-15T03:45:46;12.50;;;2.30;;
11034;SDS011;5571;48.110;-1.706;2022-11-15T03:48:22;11.73;;;1.90;;
11034;SDS011;5571;48.110;-1.706;2022-11-15T03:50:52;10.53;;;2.73;;
11034;SDS011;5571;48.110;-1.706;2022-11-15T03:53:18;12.80;;;2.20;;
11034;SDS011;5571;48.110;-1.706;2022-11-15T03:55:43;8.23;;;1.57;;
11034;SDS011;5571;48.110;-1.706;2022-11-15T03:58:09;9.57;;;2.47;;
11034;SDS011;5571;48.110;-1.706;2022-11-15T04:00:35;7.70;;;1.90;;
11034;SDS011;5571;48.110;-1.706;2022-11-15T04:03:00;9.53;;;1.73;;
11034;SDS011;5571;48.110;-1.706;2022-11-15T04:05:26;15.37;;;2.63;;
11034;SDS011;5571;48.110;-1.706;2022-11-15T04:07:52;9.30;;;2.10;;
11034;SDS011;5571;48.110;-1.706;2022-11-15T04:10:17;11.17;;;2.30;;
11034;SDS011;5571;48.110;-1.706;2022-11-15T04:12:43;12.33;;;2.07;;
11034;SDS011;5571;48.110;-1.706;2022-11-15T04:15:13;9.23;;;1.60;;
11034;SDS011;5571;48.110;-1.706;2022-11-15T04:17:49;11.50;;;1.73;;
11034;SDS011;5571;48.110;-1.706;2022-11-15T04:20:18;7.60;;;1.67;;
11034;SDS011;5571;48.110;-1.706;2022-11-15T04:23:05;15.80;;;2.40;;
11034;SDS011;5571;48.110;-1.706;2022-11-15T04:25:53;9.03;;;1.73;;
11034;SDS011;5571;48.110;-1.706;2022-11-15T04:28:20;14.03;;;1.93;;
11034;SDS011;5571;48.110;-1.706;2022-11-15T04:30:46;10.53;;;1.93;;
11034;SDS011;5571;48.110;-1.706;2022-11-15T04:33:12;7.13;;;2.00;;
11034;SDS011;5571;48.110;-1.706;2022-11-15T04:35:38;10.57;;;2.27;;
11034;SDS011;5571;48.110;-1.706;2022-11-15T04:38:05;10.30;;;1.90;;
11034;SDS011;5571;48.110;-1.706;2022-11-15T04:40:32;11.17;;;1.77;;
11034;SDS011;5571;48.110;-1.706;2022-11-15T04:42:59;10.53;;;2.00;;
11034;SDS011;5571;48.110;-1.706;2022-11-15T04:45:25;7.17;;;1.93;;
11034;SDS011;5571;48.110;-1.706;2022-11-15T04:47:50;10.23;;;2.37;;
11034;SDS011;5571;48.110;-1.706;2022-11-15T04:50:16;10.30;;;2.10;;
11034;SDS011;5571;48.110;-1.706;2022-11-15T04:52:42;11.73;;;2.30;;
11034;SDS011;5571;48.110;-1.706;2022-11-15T04:55:14;11.93;;;2.00;;
11034;SDS011;5571;48.110;-1.706;2022-11-15T04:57:40;9.63;;;1.97;;
11034;SDS011;5571;48.110;-1.706;2022-11-15T05:00:07;11.43;;;2.00;;
11034;SDS011;5571;48.110;-1.706;2022-11-15T05:02:34;13.37;;;2.30;;
11034;SDS011;5571;48.110;-1.706;2022-11-15T05:05:23;9.20;;;2.17;;
11034;SDS011;5571;48.110;-1.706;2022-11-15T05:07:49;9.67;;;2.07;;
11034;SDS011;5571;48.110;-1.706;2022-11-15T05:10:15;11.97;;;2.13;;
11034;SDS011;5571;48.110;-1.706;2022-11-15T05:12:41;9.73;;;2.50;;
11034;SDS011;5571;48.110;-1.706;2022-11-15T05:15:07;11.27;;;2.40;;
11034;SDS011;5571;48.110;-1.706;2022-11-15T05:17:33;7.80;;;2.13;;
11034;SDS011;5571;48.110;-1.706;2022-11-15T05:19:59;9.43;;;2.00;;
11034;SDS011;5571;48.110;-1.706;2022-11-15T05:22:25;9.17;;;2.20;;
11034;SDS011;5571;48.110;-1.706;2022-11-15T05:24:50;13.97;;;2.37;;
11034;SDS011;5571;48.110;-1.706;2022-11-15T05:27:16;10.20;;;1.93;;
11034;SDS011;5571;48.110;-1.706;2022-11-15T05:29:42;12.43;;;2.63;;
11034;SDS011;5571;48.110;-1.706;2022-11-15T05:32:08;8.67;;;2.03;;
11034;SDS011;5571;48.110;-1.706;2022-11-15T05:34:35;10.37;;;2.33;;
11034;SDS011;5571;48.110;-1.706;2022-11-15T05:37:00;10.97;;;2.43;;
11034;SDS011;5571;48.110;-1.706;2022-11-15T05:39:26;6.63;;;1.93;;
11034;SDS011;5571;48.110;-1.706;2022-11-15T05:41:52;8.73;;;1.73;;
11034;SDS011;5571;48.110;-1.706;2022-11-15T05:44:22;11.20;;;1.90;;
11034;SDS011;5571;48.110;-1.706;2022-11-15T05:46:50;12.00;;;1.97;;
11034;SDS011;5571;48.110;-1.706;2022-11-15T05:49:21;9.13;;;2.10;;
11034;SDS011;5571;48.110;-1.706;2022-11-15T05:51:51;9.70;;;2.20;;
11034;SDS011;5571;48.110;-1.706;2022-11-15T05:54:18;11.30;;;2.30;;
11034;SDS011;5571;48.110;-1.706;2022-11-15T05:56:46;10.67;;;2.30;;
11034;SDS011;5571;48.110;-1.706;2022-11-15T05:59:11;8.00;;;2.37;;
11034;SDS011;5571;48.110;-1.706;2022-11-15T06:01:37;14.47;;;2.40;;
11034;SDS011;5571;48.110;-1.706;2022-11-15T06:04:04;8.40;;;1.90;;
11034;SDS011;5571;48.110;-1.706;2022-11-15T06:06:30;10.33;;;2.50;;
11034;SDS011;5571;48.110;-1.706;2022-11-15T06:08:55;9.47;;;2.37;;
11034;SDS011;5571;48.110;-1.706;2022-11-15T06:11:21;11.40;;;2.40;;
11034;SDS011;5571;48.110;-1.706;2022-11-15T06:13:47;10.47;;;2.20;;
11034;SDS011;5571;48.110;-1.706;2022-11-15T06:16:12;9.97;;;2.40;;
11034;SDS011;5571;48.110;-1.706;2022-11-15T06:18:38;9.23;;;2.23;;
11034;SDS011;5571;48.110;-1.706;2022-11-15T06:21:04;12.73;;;2.63;;
11034;SDS011;5571;48.110;-1.706;2022-11-15T06:23:34;8.07;;;2.20;;
11034;SDS011;5571;48.110;-1.706;2022-11-15T06:26:00;9.50;;;2.10;;
11034;SDS011;5571;48.110;-1.706;2022-11-15T06:28:28;13.40;;;2.50;;
11034;SDS011;5571;48.110;-1.706;2022-11-15T06:30:54;9.77;;;2.50;;
11034;SDS011;5571;48.110;-1.706;2022-11-15T06:33:20;7.77;;;2.33;;
11034;SDS011;5571;48.110;-1.706;2022-11-15T06:35:46;8.87;;;2.10;;
11034;SDS011;5571;48.110;-1.706;2022-11-15T06:38:12;9.20;;;2.20;;
11034;SDS011;5571;48.110;-1.706;2022-11-15T06:40:37;6.80;;;2.37;;
11034;SDS011;5571;48.110;-1.706;2022-11-15T06:43:04;10.47;;;2.37;;
11034;SDS011;5571;48.110;-1.706;2022-11-15T06:45:30;9.87;;;2.83;;
11034;SDS011;5571;48.110;-1.706;2022-11-15T06:47:57;10.37;;;2.57;;
11034;SDS011;5571;48.110;-1.706;2022-11-15T06:50:23;10.20;;;2.53;;
11034;SDS011;5571;48.110;-1.706;2022-11-15T06:52:49;12.17;;;2.60;;
11034;SDS011;5571;48.110;-1.706;2022-11-15T06:55:15;11.97;;;2.53;;
11034;SDS011;5571;48.110;-1.706;2022-11-15T06:57:50;9.73;;;2.83;;
11034;SDS011;5571;48.110;-1.706;2022-11-15T07:00:17;13.47;;;2.93;;
11034;SDS011;5571;48.110;-1.706;2022-11-15T07:02:44;11.03;;;3.10;;
11034;SDS011;5571;48.110;-1.706;2022-11-15T07:05:10;7.60;;;2.33;;
11034;SDS011;5571;48.110;-1.706;2022-11-15T07:07:36;5.13;;;2.37;;
11034;SDS011;5571;48.110;-1.706;2022-11-15T07:10:02;4.67;;;2.53;;
11034;SDS011;5571;48.110;-1.706;2022-11-15T07:12:28;11.77;;;2.83;;
11034;SDS011;5571;48.110;-1.706;2022-11-15T07:14:53;9.67;;;3.17;;
11034;SDS011;5571;48.110;-1.706;2022-11-15T07:17:19;5.17;;;2.20;;
11034;SDS011;5571;48.110;-1.706;2022-11-15T07:19:45;7.23;;;2.33;;
11034;SDS011;5571;48.110;-1.706;2022-11-15T07:22:10;6.13;;;2.30;;
11034;SDS011;5571;48.110;-1.706;2022-11-15T07:24:36;6.77;;;2.63;;
11034;SDS011;5571;48.110;-1.706;2022-11-15T07:27:01;9.57;;;2.33;;
11034;SDS011;5571;48.110;-1.706;2022-11-15T07:29:27;5.53;;;2.13;;
11034;SDS011;5571;48.110;-1.706;2022-11-15T07:31:53;7.17;;;2.10;;
11034;SDS011;5571;48.110;-1.706;2022-11-15T07:34:18;8.50;;;2.13;;
11034;SDS011;5571;48.110;-1.706;2022-11-15T07:36:44;6.30;;;1.97;;
11034;SDS011;5571;48.110;-1.706;2022-11-15T07:39:10;5.00;;;1.97;;
11034;SDS011;5571;48.110;-1.706;2022-11-15T07:41:37;5.20;;;2.20;;
11034;SDS011;5571;48.110;-1.706;2022-11-15T07:44:03;4.80;;;2.20;;
11034;SDS011;5571;48.110;-1.706;2022-11-15T07:46:29;5.40;;;2.37;;
11034;SDS011;5571;48.110;-1.706;2022-11-15T07:48:56;6.50;;;2.13;;
11034;SDS011;5571;48.110;-1.706;2022-11-15T07:51:21;4.90;;;2.27;;
11034;SDS011;5571;48.110;-1.706;2022-11-15T07:53:47;4.63;;;2.17;;
11034;SDS011;5571;48.110;-1.706;2022-11-15T07:56:12;5.93;;;2.30;;
11034;SDS011;5571;48.110;-1.706;2022-11-15T07:58:38;2.63;;;1.73;;
11034;SDS011;5571;48.110;-1.706;2022-11-15T08:01:08;5.17;;;2.00;;
11034;SDS011;5571;48.110;-1.706;2022-11-15T08:03:36;4.83;;;2.10;;
11034;SDS011;5571;48.110;-1.706;2022-11-15T08:06:02;4.80;;;2.33;;
11034;SDS011;5571;48.110;-1.706;2022-11-15T08:08:28;6.17;;;2.33;;
11034;SDS011;5571;48.110;-1.706;2022-11-15T08:10:54;7.17;;;2.00;;
11034;SDS011;5571;48.110;-1.706;2022-11-15T08:13:19;6.27;;;2.03;;
11034;SDS011;5571;48.110;-1.706;2022-11-15T08:15:46;6.37;;;2.13;;
11034;SDS011;5571;48.110;-1.706;2022-11-15T08:18:12;4.37;;;2.20;;
11034;SDS011;5571;48.110;-1.706;2022-11-15T08:20:40;5.33;;;1.67;;
11034;SDS011;5571;48.110;-1.706;2022-11-15T08:23:06;4.77;;;2.27;;
11034;SDS011;5571;48.110;-1.706;2022-11-15T08:25:33;3.40;;;2.00;;
11034;SDS011;5571;48.110;-1.706;2022-11-15T08:28:01;4.43;;;1.90;;
11034;SDS011;5571;48.110;-1.706;2022-11-15T08:30:28;1.70;;;1.60;;
11034;SDS011;5571;48.110;-1.706;2022-11-15T08:32:55;7.27;;;1.80;;
11034;SDS011;5571;48.110;-1.706;2022-11-15T08:35:22;2.83;;;1.57;;
11034;SDS011;5571;48.110;-1.706;2022-11-15T08:37:49;3.03;;;2.00;;
11034;SDS011;5571;48.110;-1.706;2022-11-15T08:40:15;5.30;;;1.73;;
11034;SDS011;5571;48.110;-1.706;2022-11-15T08:42:40;2.40;;;1.70;;
11034;SDS011;5571;48.110;-1.706;2022-11-15T08:45:07;3.13;;;1.40;;
11034;SDS011;5571;48.110;-1.706;2022-11-15T08:47:33;3.40;;;1.70;;
11034;SDS011;5571;48.110;-1.706;2022-11-15T08:49:59;3.07;;;1.60;;
11034;SDS011;5571;48.110;-1.706;2022-11-15T08:52:25;1.63;;;1.50;;
11034;SDS011;5571;48.110;-1.706;2022-11-15T08:54:51;2.20;;;1.60;;
11034;SDS011;5571;48.110;-1.706;2022-11-15T08:57:17;2.10;;;1.30;;
11034;SDS011;5571;48.110;-1.706;2022-11-15T08:59:43;2.83;;;1.30;;
11034;SDS011;5571;48.110;-1.706;2022-11-15T09:02:12;2.87;;;1.60;;
11034;SDS011;5571;48.110;-1.706;2022-11-15T09:04:42;7.63;;;1.70;;
11034;SDS011;5571;48.110;-1.706;2022-11-15T09:07:11;4.53;;;1.53;;
11034;SDS011;5571;48.110;-1.706;2022-11-15T09:09:38;3.30;;;1.80;;
11034;SDS011;5571;48.110;-1.706;2022-11-15T09:12:04;2.53;;;1.13;;
11034;SDS011;5571;48.110;-1.706;2022-11-15T09:14:30;6.20;;;1.67;;
11034;SDS011;5571;48.110;-1.706;2022-11-15T09:16:56;4.27;;;1.73;;
11034;SDS011;5571;48.110;-1.706;2022-11-15T09:19:23;5.33;;;1.60;;
11034;SDS011;5571;48.110;-1.706;2022-11-15T09:21:49;6.10;;;2.23;;
11034;SDS011;5571;48.110;-1.706;2022-11-15T09:24:14;7.60;;;1.80;;
11034;SDS011;5571;48.110;-1.706;2022-11-15T09:26:40;10.20;;;2.20;;
11034;SDS011;5571;48.110;-1.706;2022-11-15T09:29:06;7.93;;;2.10;;
11034;SDS011;5571;48.110;-1.706;2022-11-15T09:31:31;4.33;;;1.90;;
11034;SDS011;5571;48.110;-1.706;2022-11-15T09:33:57;5.90;;;2.20;;
11034;SDS011;5571;48.110;-1.706;2022-11-15T09:36:23;6.10;;;1.90;;
11034;SDS011;5571;48.110;-1.706;2022-11-15T09:38:49;5.60;;;1.90;;
11034;SDS011;5571;48.110;-1.706;2022-11-15T09:46:15;5.23;;;2.07;;
11034;SDS011;5571;48.110;-1.706;2022-11-15T09:48:56;6.40;;;2.03;;
11034;SDS011;5571;48.110;-1.706;2022-11-15T09:54:15;6.87;;;2.07;;
11034;SDS011;5571;48.110;-1.706;2022-11-15T09:56:44;6.13;;;2.20;;
11034;SDS011;5571;48.110;-1.706;2022-11-15T10:04:29;3.77;;;1.50;;
11034;SDS011;5571;48.110;-1.706;2022-11-15T10:07:04;7.63;;;2.20;;
11034;SDS011;5571;48.110;-1.706;2022-11-15T10:09:39;5.63;;;2.10;;
11034;SDS011;5571;48.110;-1.706;2022-11-15T10:12:09;8.50;;;2.47;;
11034;SDS011;5571;48.110;-1.706;2022-11-15T10:14:38;10.00;;;2.50;;
11034;SDS011;5571;48.110;-1.706;2022-11-15T10:22:50;5.17;;;1.90;;
11034;SDS011;5571;48.110;-1.706;2022-11-15T10:25:28;10.53;;;2.53;;
11034;SDS011;5571;48.110;-1.706;2022-11-15T10:30:36;6.83;;;2.27;;
11034;SDS011;5571;48.110;-1.706;2022-11-15T10:33:25;8.07;;;2.27;;
11034;SDS011;5571;48.110;-1.706;2022-11-15T10:41:16;9.07;;;2.50;;
11034;SDS011;5571;48.110;-1.706;2022-11-15T10:43:44;5.37;;;2.20;;
11034;SDS011;5571;48.110;-1.706;2022-11-15T10:46:23;6.87;;;2.10;;
11034;SDS011;5571;48.110;-1.706;2022-11-15T10:48:49;11.00;;;2.60;;
11034;SDS011;5571;48.110;-1.706;2022-11-15T10:51:25;10.17;;;2.90;;
11034;SDS011;5571;48.110;-1.706;2022-11-15T10:53:53;13.23;;;2.83;;
11034;SDS011;5571;48.110;-1.706;2022-11-15T10:56:21;8.63;;;2.40;;
11034;SDS011;5571;48.110;-1.706;2022-11-15T10:58:53;15.80;;;3.60;;
11034;SDS011;5571;48.110;-1.706;2022-11-15T11:01:25;11.87;;;3.00;;
11034;SDS011;5571;48.110;-1.706;2022-11-15T11:04:05;12.57;;;3.20;;
11034;SDS011;5571;48.110;-1.706;2022-11-15T11:06:54;9.43;;;2.50;;
11034;SDS011;5571;48.110;-1.706;2022-11-15T11:09:23;21.37;;;3.07;;
11034;SDS011;5571;48.110;-1.706;2022-11-15T11:11:52;13.57;;;2.83;;
11034;SDS011;5571;48.110;-1.706;2022-11-15T11:14:22;14.20;;;2.90;;
11034;SDS011;5571;48.110;-1.706;2022-11-15T11:22:00;14.07;;;2.70;;
11034;SDS011;5571;48.110;-1.706;2022-11-15T11:27:36;12.83;;;3.00;;
11034;SDS011;5571;48.110;-1.706;2022-11-15T11:30:14;18.47;;;2.80;;
11034;SDS011;5571;48.110;-1.706;2022-11-15T11:35:38;9.27;;;2.73;;
11034;SDS011;5571;48.110;-1.706;2022-11-15T11:43:41;15.60;;;2.87;;
11034;SDS011;5571;48.110;-1.706;2022-11-15T11:49:24;20.80;;;3.77;;
11034;SDS011;5571;48.110;-1.706;2022-11-15T11:55:29;19.63;;;3.17;;
11034;SDS011;5571;48.110;-1.706;2022-11-15T12:00:28;17.20;;;2.97;;
11034;SDS011;5571;48.110;-1.706;2022-11-15T12:10:53;13.10;;;3.00;;
11034;SDS011;5571;48.110;-1.706;2022-11-15T12:13:25;12.47;;;2.70;;
11034;SDS011;5571;48.110;-1.706;2022-11-15T12:16:05;7.13;;;2.30;;
11034;SDS011;5571;48.110;-1.706;2022-11-15T12:18:49;9.13;;;2.33;;
11034;SDS011;5571;48.110;-1.706;2022-11-15T12:24:06;8.73;;;2.33;;
11034;SDS011;5571;48.110;-1.706;2022-11-15T12:26:41;17.37;;;2.63;;
11034;SDS011;5571;48.110;-1.706;2022-11-15T12:29:18;16.20;;;3.07;;
11034;SDS011;5571;48.110;-1.706;2022-11-15T12:31:53;11.60;;;2.57;;
11034;SDS011;5571;48.110;-1.706;2022-11-15T12:36:48;11.83;;;2.50;;
11034;SDS011;5571;48.110;-1.706;2022-11-15T12:39:15;20.37;;;3.23;;
11034;SDS011;5571;48.110;-1.706;2022-11-15T12:41:43;9.23;;;2.40;;
11034;SDS011;5571;48.110;-1.706;2022-11-15T13:04:46;10.50;;;2.73;;
11034;SDS011;5571;48.110;-1.706;2022-11-15T13:10:00;9.97;;;2.53;;
11034;SDS011;5571;48.110;-1.706;2022-11-15T13:17:46;6.80;;;2.13;;
11034;SDS011;5571;48.110;-1.706;2022-11-15T13:22:41;10.00;;;2.03;;
11034;SDS011;5571;48.110;-1.706;2022-11-15T13:27:44;9.57;;;2.20;;
11034;SDS011;5571;48.110;-1.706;2022-11-15T13:30:16;8.77;;;2.07;;
11034;SDS011;5571;48.110;-1.706;2022-11-15T13:32:46;8.33;;;2.07;;
11034;SDS011;5571;48.110;-1.706;2022-11-15T13:35:20;9.23;;;2.10;;
11034;SDS011;5571;48.110;-1.706;2022-11-15T13:37:53;9.60;;;2.43;;
11034;SDS011;5571;48.110;-1.706;2022-11-15T13:40:24;9.83;;;2.03;;
11034;SDS011;5571;48.110;-1.706;2022-11-15T13:42:57;9.30;;;1.90;;
11034;SDS011;5571;48.110;-1.706;2022-11-15T13:45:23;10.77;;;2.30;;
11034;SDS011;5571;48.110;-1.706;2022-11-15T13:47:51;9.57;;;2.30;;
11034;SDS011;5571;48.110;-1.706;2022-11-15T13:50:25;10.63;;;2.50;;
11034;SDS011;5571;48.110;-1.706;2022-11-15T13:52:55;8.90;;;2.03;;
11034;SDS011;5571;48.110;-1.706;2022-11-15T13:55:24;12.60;;;2.30;;
11034;SDS011;5571;48.110;-1.706;2022-11-15T13:57:57;9.67;;;2.03;;
11034;SDS011;5571;48.110;-1.706;2022-11-15T14:08:28;9.03;;;2.10;;
11034;SDS011;5571;48.110;-1.706;2022-11-15T14:11:12;11.33;;;1.80;;
11034;SDS011;5571;48.110;-1.706;2022-11-15T14:13:39;5.43;;;1.60;;
11034;SDS011;5571;48.110;-1.706;2022-11-15T14:16:18;5.73;;;1.73;;
11034;SDS011;5571;48.110;-1.706;2022-11-15T14:18:46;5.73;;;1.63;;
11034;SDS011;5571;48.110;-1.706;2022-11-15T14:21:17;7.57;;;1.73;;
11034;SDS011;5571;48.110;-1.706;2022-11-15T14:23:44;6.23;;;1.70;;
11034;SDS011;5571;48.110;-1.706;2022-11-15T14:26:29;6.93;;;1.73;;
11034;SDS011;5571;48.110;-1.706;2022-11-15T14:29:06;4.53;;;1.53;;
11034;SDS011;5571;48.110;-1.706;2022-11-15T14:34:39;6.87;;;1.80;;
11034;SDS011;5571;48.110;-1.706;2022-11-15T14:37:10;8.97;;;1.90;;
11034;SDS011;5571;48.110;-1.706;2022-11-15T14:39:46;4.10;;;1.60;;
11034;SDS011;5571;48.110;-1.706;2022-11-15T14:42:12;4.93;;;1.60;;
11034;SDS011;5571;48.110;-1.706;2022-11-15T14:44:38;8.80;;;1.83;;
11034;SDS011;5571;48.110;-1.706;2022-11-15T14:47:04;7.37;;;2.03;;
11034;SDS011;5571;48.110;-1.706;2022-11-15T14:49:29;9.80;;;2.07;;
11034;SDS011;5571;48.110;-1.706;2022-11-15T14:51:55;5.70;;;1.57;;
11034;SDS011;5571;48.110;-1.706;2022-11-15T14:54:20;10.20;;;2.07;;
11034;SDS011;5571;48.110;-1.706;2022-11-15T14:56:46;9.70;;;2.00;;
11034;SDS011;5571;48.110;-1.706;2022-11-15T14:59:11;9.27;;;2.30;;
11034;SDS011;5571;48.110;-1.706;2022-11-15T15:01:37;6.37;;;1.27;;
11034;SDS011;5571;48.110;-1.706;2022-11-15T15:04:03;5.23;;;1.63;;
11034;SDS011;5571;48.110;-1.706;2022-11-15T15:06:28;5.30;;;1.63;;
11034;SDS011;5571;48.110;-1.706;2022-11-15T15:08:55;3.77;;;1.10;;
11034;SDS011;5571;48.110;-1.706;2022-11-15T15:13:48;4.27;;;1.30;;
11034;SDS011;5571;48.110;-1.706;2022-11-15T15:16:14;3.83;;;1.60;;
11034;SDS011;5571;48.110;-1.706;2022-11-15T15:18:40;3.97;;;1.40;;
11034;SDS011;5571;48.110;-1.706;2022-11-15T15:21:13;4.50;;;1.50;;
11034;SDS011;5571;48.110;-1.706;2022-11-15T15:23:53;5.63;;;1.50;;
11034;SDS011;5571;48.110;-1.706;2022-11-15T15:26:19;4.80;;;1.60;;
11034;SDS011;5571;48.110;-1.706;2022-11-15T15:28:45;6.60;;;1.83;;
11034;SDS011;5571;48.110;-1.706;2022-11-15T15:31:13;3.83;;;1.47;;
11034;SDS011;5571;48.110;-1.706;2022-11-15T15:33:39;7.27;;;1.70;;
11034;SDS011;5571;48.110;-1.706;2022-11-15T15:36:08;4.20;;;1.17;;
11034;SDS011;5571;48.110;-1.706;2022-11-15T15:38:38;6.50;;;1.43;;
11034;SDS011;5571;48.110;-1.706;2022-11-15T15:41:12;4.77;;;1.40;;
11034;SDS011;5571;48.110;-1.706;2022-11-15T15:43:39;3.97;;;1.80;;
11034;SDS011;5571;48.110;-1.706;2022-11-15T15:46:12;4.30;;;1.63;;
11034;SDS011;5571;48.110;-1.706;2022-11-15T15:48:40;5.40;;;1.43;;
11034;SDS011;5571;48.110;-1.706;2022-11-15T15:51:06;7.73;;;2.07;;
11034;SDS011;5571;48.110;-1.706;2022-11-15T15:53:32;4.27;;;1.80;;
11034;SDS011;5571;48.110;-1.706;2022-11-15T15:55:58;7.83;;;1.87;;
11034;SDS011;5571;48.110;-1.706;2022-11-15T15:58:24;6.13;;;1.90;;
11034;SDS011;5571;48.110;-1.706;2022-11-15T16:00:49;10.03;;;1.97;;
11034;SDS011;5571;48.110;-1.706;2022-11-15T16:03:15;6.50;;;2.20;;
11034;SDS011;5571;48.110;-1.706;2022-11-15T16:05:41;6.03;;;2.00;;
11034;SDS011;5571;48.110;-1.706;2022-11-15T16:08:19;7.40;;;2.00;;
11034;SDS011;5571;48.110;-1.706;2022-11-15T16:10:47;9.17;;;2.00;;
11034;SDS011;5571;48.110;-1.706;2022-11-15T16:13:13;10.00;;;1.97;;
11034;SDS011;5571;48.110;-1.706;2022-11-15T16:15:39;8.67;;;2.00;;
11034;SDS011;5571;48.110;-1.706;2022-11-15T16:18:05;7.53;;;1.83;;
11034;SDS011;5571;48.110;-1.706;2022-11-15T16:20:37;9.53;;;2.17;;
11034;SDS011;5571;48.110;-1.706;2022-11-15T16:23:05;8.60;;;2.00;;
11034;SDS011;5571;48.110;-1.706;2022-11-15T16:25:33;9.27;;;2.20;;
11034;SDS011;5571;48.110;-1.706;2022-11-15T16:28:21;7.87;;;1.83;;
11034;SDS011;5571;48.110;-1.706;2022-11-15T16:30:59;7.33;;;2.03;;
11034;SDS011;5571;48.110;-1.706;2022-11-15T16:33:29;9.33;;;2.50;;
11034;SDS011;5571;48.110;-1.706;2022-11-15T16:35:55;9.50;;;2.60;;
11034;SDS011;5571;48.110;-1.706;2022-11-15T16:38:21;5.60;;;2.10;;
11034;SDS011;5571;48.110;-1.706;2022-11-15T16:40:47;12.37;;;2.60;;
11034;SDS011;5571;48.110;-1.706;2022-11-15T16:43:12;10.07;;;2.80;;
11034;SDS011;5571;48.110;-1.706;2022-11-15T16:45:38;16.17;;;2.10;;
11034;SDS011;5571;48.110;-1.706;2022-11-15T16:48:04;13.97;;;2.67;;
11034;SDS011;5571;48.110;-1.706;2022-11-15T16:50:32;13.13;;;2.67;;
11034;SDS011;5571;48.110;-1.706;2022-11-15T16:53:05;14.07;;;2.50;;
11034;SDS011;5571;48.110;-1.706;2022-11-15T16:55:31;10.53;;;2.60;;
11034;SDS011;5571;48.110;-1.706;2022-11-15T16:57:56;9.33;;;2.63;;
11034;SDS011;5571;48.110;-1.706;2022-11-15T17:00:22;10.70;;;2.80;;
11034;SDS011;5571;48.110;-1.706;2022-11-15T17:02:49;13.40;;;2.50;;
11034;SDS011;5571;48.110;-1.706;2022-11-15T17:05:17;7.50;;;2.07;;
11034;SDS011;5571;48.110;-1.706;2022-11-15T17:07:45;11.20;;;2.60;;
11034;SDS011;5571;48.110;-1.706;2022-11-15T17:10:18;13.40;;;2.90;;
11034;SDS011;5571;48.110;-1.706;2022-11-15T17:12:44;10.93;;;2.50;;
11034;SDS011;5571;48.110;-1.706;2022-11-15T17:15:10;12.93;;;2.20;;
11034;SDS011;5571;48.110;-1.706;2022-11-15T17:17:37;15.87;;;2.63;;
11034;SDS011;5571;48.110;-1.706;2022-11-15T17:20:03;6.83;;;2.27;;
11034;SDS011;5571;48.110;-1.706;2022-11-15T17:22:34;10.23;;;2.63;;
11034;SDS011;5571;48.110;-1.706;2022-11-15T17:25:00;15.67;;;3.20;;
11034;SDS011;5571;48.110;-1.706;2022-11-15T17:27:26;9.00;;;2.40;;
11034;SDS011;5571;48.110;-1.706;2022-11-15T17:29:51;9.30;;;2.30;;
11034;SDS011;5571;48.110;-1.706;2022-11-15T17:32:17;11.13;;;3.33;;
11034;SDS011;5571;48.110;-1.706;2022-11-15T17:34:43;18.13;;;5.10;;
11034;SDS011;5571;48.110;-1.706;2022-11-15T17:37:08;15.20;;;5.73;;